Time;durP1;ratioP1;P1;durP2;ratioP2;P2;SDS_P1;SDS_P2;PMS_P1;PMS_P2;Temp;Humidity;BMP_temperature;BMP_pressure;BME280_temperature;BME280_humidity;BME280_pressure;Samples;Min_cycle;Max_cycle;Signal;HPM_P1;HPM_P2
2021/04/20 00:02:23;;;;;;;6.80;4.67;;;10.10;99.90;;;;;;5032356;28;20220;-70
2021/04/20 00:04:48;;;;;;;6.87;4.33;;;10.20;99.90;;;;;;5047281;28;20314;-70
2021/04/20 00:07:14;;;;;;;7.30;5.07;;;10.30;99.90;;;;;;5034519;28;20541;-69
2021/04/20 00:09:40;;;;;;;5.73;4.30;;;10.40;99.90;;;;;;5051744;28;20215;-69
2021/04/20 00:12:07;;;;;;;7.07;5.30;;;10.40;99.90;;;;;;5029914;28;20416;-69
2021/04/20 00:14:32;;;;;;;9.40;5.10;;;10.30;99.90;;;;;;5051416;28;20461;-69
2021/04/20 00:17:01;;;;;;;9.40;5.73;;;10.20;99.90;;;;;;5023365;28;20788;-70
2021/04/20 00:19:26;;;;;;;9.30;6.10;;;10.10;99.90;;;;;;5033410;28;20450;-69
2021/04/20 00:21:52;;;;;;;6.37;5.10;;;10.00;99.90;;;;;;5032168;28;20675;-69
2021/04/20 00:24:18;;;;;;;7.87;5.80;;;10.00;99.90;;;;;;5030873;28;20228;-69
2021/04/20 00:26:43;;;;;;;7.00;5.27;;;10.00;99.90;;;;;;5008115;28;20232;-70
2021/04/20 00:29:09;;;;;;;6.70;5.20;;;10.10;99.90;;;;;;5051575;28;20232;-70
2021/04/20 00:31:35;;;;;;;7.27;6.47;;;10.20;99.90;;;;;;5052731;28;20266;-69
2021/04/20 00:34:00;;;;;;;7.47;6.07;;;10.20;99.90;;;;;;5052205;28;20212;-70
2021/04/20 00:36:26;;;;;;;10.30;6.10;;;10.10;99.90;;;;;;5049486;28;20219;-69
2021/04/20 00:38:52;;;;;;;7.57;5.77;;;10.10;99.90;;;;;;5050776;28;20273;-69
2021/04/20 00:41:18;;;;;;;8.77;6.13;;;10.20;99.90;;;;;;5018944;28;20458;-70
2021/04/20 00:43:46;;;;;;;8.87;5.73;;;10.20;99.90;;;;;;5024095;28;20239;-69
2021/04/20 00:46:14;;;;;;;6.00;4.90;;;10.20;99.90;;;;;;5049272;28;20281;-71
2021/04/20 00:48:40;;;;;;;8.67;5.87;;;10.20;99.90;;;;;;5051326;28;20474;-70
2021/04/20 00:51:07;;;;;;;9.70;5.80;;;10.20;99.90;;;;;;5050916;28;20470;-70
2021/04/20 00:53:34;;;;;;;8.87;6.13;;;10.20;99.90;;;;;;5049913;28;20478;-69
2021/04/20 00:56:00;;;;;;;7.00;5.37;;;10.20;99.90;;;;;;5050989;28;20547;-70
2021/04/20 00:58:26;;;;;;;7.97;6.40;;;10.20;99.90;;;;;;5051884;28;20966;-69
2021/04/20 01:00:52;;;;;;;12.90;6.57;;;10.20;99.90;;;;;;5051216;28;20473;-69
2021/04/20 01:03:18;;;;;;;9.50;6.67;;;10.10;99.90;;;;;;5034862;28;20243;-71
2021/04/20 01:05:45;;;;;;;11.47;7.10;;;10.10;99.90;;;;;;5051431;28;20454;-70
2021/04/20 01:08:13;;;;;;;8.20;6.17;;;10.10;99.90;;;;;;5018034;28;20507;-69
2021/04/20 01:10:41;;;;;;;10.13;6.47;;;10.10;99.90;;;;;;5050426;28;20458;-69
2021/04/20 01:13:09;;;;;;;8.00;6.13;;;10.10;99.90;;;;;;5051736;28;20460;-69
2021/04/20 01:15:35;;;;;;;9.37;6.53;;;10.00;99.90;;;;;;5033855;28;20953;-69
2021/04/20 01:18:12;;;;;;;10.40;6.40;;;10.00;99.90;;;;;;5049929;28;20509;-69
2021/04/20 01:20:41;;;;;;;10.30;6.67;;;10.00;99.90;;;;;;5017755;28;20242;-69
2021/04/20 01:23:09;;;;;;;10.17;7.37;;;9.90;99.90;;;;;;5018220;28;20571;-70
2021/04/20 01:25:35;;;;;;;9.47;6.40;;;9.80;99.90;;;;;;5034553;28;20458;-70
2021/04/20 01:28:01;;;;;;;9.57;7.20;;;9.80;99.90;;;;;;5051459;28;20455;-70
2021/04/20 01:30:28;;;;;;;7.80;6.30;;;9.80;99.90;;;;;;5001505;28;20457;-70
2021/04/20 01:32:54;;;;;;;9.23;7.60;;;9.80;99.90;;;;;;5051872;28;20295;-70
2021/04/20 01:35:19;;;;;;;8.53;6.57;;;9.80;99.90;;;;;;5033720;28;20545;-69
2021/04/20 01:37:46;;;;;;;8.87;6.77;;;9.80;99.90;;;;;;5034326;28;20592;-70
2021/04/20 01:40:12;;;;;;;12.13;6.43;;;9.70;99.90;;;;;;5050152;28;20319;-69
2021/04/20 01:42:38;;;;;;;11.30;7.00;;;9.70;99.90;;;;;;5050947;28;20526;-71
2021/04/20 01:45:06;;;;;;;9.27;6.60;;;9.40;99.90;;;;;;5050940;28;20451;-70
2021/04/20 01:47:32;;;;;;;9.00;6.63;;;9.30;99.90;;;;;;5051731;28;20239;-68
2021/04/20 01:50:00;;;;;;;8.50;5.97;;;9.30;99.90;;;;;;5051972;28;20533;-69
2021/04/20 01:52:26;;;;;;;9.33;6.30;;;9.40;99.90;;;;;;5034363;28;20524;-70
2021/04/20 01:54:51;;;;;;;11.53;6.57;;;9.40;99.90;;;;;;5050951;28;20466;-69
2021/04/20 01:57:19;;;;;;;6.73;6.07;;;9.40;99.90;;;;;;5033756;28;20223;-72
2021/04/20 01:59:45;;;;;;;8.17;6.30;;;9.30;99.90;;;;;;5016659;28;20714;-70
2021/04/20 02:02:11;;;;;;;10.50;6.30;;;9.40;99.90;;;;;;5050334;28;20485;-70
2021/04/20 02:04:37;;;;;;;9.47;6.60;;;9.40;99.90;;;;;;5033577;28;21058;-69
2021/04/20 02:07:03;;;;;;;8.73;6.40;;;9.40;99.90;;;;;;5017573;28;20457;-72
2021/04/20 02:09:29;;;;;;;8.93;6.77;;;9.40;99.90;;;;;;5049938;28;20246;-71
2021/04/20 02:11:55;;;;;;;10.90;7.10;;;9.40;99.90;;;;;;5051769;28;20605;-71
2021/04/20 02:14:20;;;;;;;7.50;5.97;;;9.30;99.90;;;;;;5033555;28;20537;-69
2021/04/20 02:16:46;;;;;;;10.73;6.80;;;9.30;99.90;;;;;;5050701;28;20219;-69
2021/04/20 02:19:14;;;;;;;7.33;6.40;;;9.30;99.90;;;;;;5049578;28;20234;-69
2021/04/20 02:21:41;;;;;;;11.07;7.40;;;9.20;99.90;;;;;;5044293;28;20260;-69
2021/04/20 02:24:09;;;;;;;9.30;7.17;;;9.20;99.90;;;;;;5033620;28;20459;-68
2021/04/20 02:26:38;;;;;;;11.97;7.57;;;8.90;99.90;;;;;;5050458;28;20489;-69
2021/04/20 02:29:07;;;;;;;10.20;7.30;;;9.00;99.90;;;;;;5050259;28;20458;-69
2021/04/20 02:31:38;;;;;;;8.27;6.60;;;9.00;99.90;;;;;;5032626;28;20509;-69
2021/04/20 02:34:08;;;;;;;10.00;6.73;;;9.10;99.90;;;;;;5033711;28;20466;-69
2021/04/20 02:36:43;;;;;;;10.53;7.63;;;9.10;99.90;;;;;;5048874;28;20458;-70
2021/04/20 02:39:10;;;;;;;14.27;7.47;;;9.10;99.90;;;;;;5051285;28;20478;-69
2021/04/20 02:41:39;;;;;;;10.57;7.03;;;9.00;99.90;;;;;;5032601;28;20950;-69
2021/04/20 02:44:08;;;;;;;10.60;7.10;;;9.00;99.90;;;;;;5049894;28;20473;-69
2021/04/20 02:46:38;;;;;;;9.30;6.90;;;9.00;99.90;;;;;;5033098;28;20452;-68
2021/04/20 02:49:05;;;;;;;8.40;6.30;;;9.00;99.90;;;;;;5032439;28;20469;-69
2021/04/20 02:51:34;;;;;;;11.50;6.77;;;8.90;99.90;;;;;;5048945;28;20438;-70
2021/04/20 02:54:00;;;;;;;9.60;6.93;;;8.90;99.90;;;;;;5049997;28;20463;-69
2021/04/20 02:56:26;;;;;;;8.07;6.00;;;8.90;99.90;;;;;;5016500;28;20462;-69
2021/04/20 02:58:53;;;;;;;8.80;6.23;;;8.90;99.90;;;;;;5032181;28;20478;-69
2021/04/20 03:01:25;;;;;;;10.27;6.10;;;8.80;99.90;;;;;;5049214;28;20516;-69
2021/04/20 03:03:51;;;;;;;10.63;6.27;;;8.70;99.90;;;;;;5049219;28;20501;-70
2021/04/20 03:06:18;;;;;;;7.43;6.07;;;8.70;99.90;;;;;;5031875;28;21005;-69
2021/04/20 03:08:45;;;;;;;10.10;6.20;;;8.60;99.90;;;;;;5032705;28;20451;-69
2021/04/20 03:11:15;;;;;;;8.53;6.50;;;8.60;99.90;;;;;;5015970;28;20533;-69
2021/04/20 03:13:45;;;;;;;7.30;5.87;;;8.70;99.90;;;;;;5039633;28;20488;-69
2021/04/20 03:16:13;;;;;;;9.47;5.63;;;8.70;99.90;;;;;;5025650;28;20546;-70
2021/04/20 03:18:39;;;;;;;13.00;7.07;;;8.70;99.90;;;;;;5031656;28;20885;-70
2021/04/20 03:21:11;;;;;;;7.13;5.47;;;8.60;99.90;;;;;;5048636;28;20580;-70
2021/04/20 03:23:37;;;;;;;7.93;5.30;;;8.50;99.90;;;;;;5032281;28;20470;-68
2021/04/20 03:26:07;;;;;;;8.00;5.60;;;8.50;99.90;;;;;;5049250;28;20470;-68
2021/04/20 03:28:33;;;;;;;8.17;5.37;;;8.40;99.90;;;;;;5048807;28;20537;-69
2021/04/20 03:31:00;;;;;;;10.17;6.37;;;8.40;99.90;;;;;;5016297;28;20541;-69
2021/04/20 03:33:35;;;;;;;7.13;5.07;;;8.40;99.90;;;;;;5031123;28;20703;-69
2021/04/20 03:36:10;;;;;;;6.80;5.20;;;8.40;99.90;;;;;;5049214;28;20470;-69
2021/04/20 03:39:00;;;;;;;6.40;5.03;;;8.20;99.90;;;;;;5034572;28;20444;-69
2021/04/20 03:41:50;;;;;;;7.87;5.30;;;8.20;99.90;;;;;;5049474;28;20477;-69
2021/04/20 03:44:30;;;;;;;7.33;4.53;;;8.00;99.90;;;;;;5031839;28;20466;-70
2021/04/20 03:47:00;;;;;;;16.70;7.80;;;8.10;99.90;;;;;;5050682;28;20465;-68
2021/04/20 03:49:36;;;;;;;16.67;8.90;;;8.10;99.90;;;;;;5048377;28;20462;-69
2021/04/20 03:52:03;;;;;;;8.70;6.17;;;8.10;99.90;;;;;;5015930;28;20541;-69
2021/04/20 03:54:31;;;;;;;7.10;5.53;;;8.00;99.90;;;;;;5048659;28;20434;-69
2021/04/20 03:57:00;;;;;;;7.60;5.40;;;8.10;99.90;;;;;;5032296;28;20469;-68
2021/04/20 03:59:29;;;;;;;8.33;5.50;;;8.10;99.90;;;;;;5031850;28;20989;-68
2021/04/20 04:01:57;;;;;;;7.13;5.70;;;8.20;99.90;;;;;;5039759;28;20547;-70
2021/04/20 04:04:25;;;;;;;8.17;5.20;;;8.20;99.90;;;;;;5011872;28;20542;-69
2021/04/20 04:06:52;;;;;;;9.93;5.43;;;8.10;99.90;;;;;;5031992;28;20458;-70
2021/04/20 04:09:19;;;;;;;6.30;4.43;;;8.10;99.90;;;;;;5045594;28;20605;-69
2021/04/20 04:12:05;;;;;;;8.57;5.13;;;8.10;99.90;;;;;;5032098;28;20458;-68
2021/04/20 04:14:33;;;;;;;9.27;4.87;;;8.10;99.90;;;;;;5047563;28;20458;-69
2021/04/20 04:17:09;;;;;;;7.37;4.47;;;8.00;99.90;;;;;;5040048;28;20458;-69
2021/04/20 04:19:40;;;;;;;4.97;4.07;;;7.90;99.90;;;;;;5048022;28;20954;-70
2021/04/20 04:22:12;;;;;;;8.20;5.40;;;7.90;99.90;;;;;;5031611;28;20595;-69
2021/04/20 04:25:06;;;;;;;10.20;4.87;;;7.90;99.90;;;;;;5047634;28;20471;-69
2021/04/20 04:27:36;;;;;;;7.20;4.83;;;7.90;99.90;;;;;;5062108;28;20450;-69
2021/04/20 04:30:07;;;;;;;7.87;5.70;;;7.90;99.90;;;;;;5058610;28;20962;-70
2021/04/20 04:32:35;;;;;;;5.50;4.57;;;7.90;99.90;;;;;;5048195;28;20443;-70
2021/04/20 04:35:04;;;;;;;8.00;4.70;;;7.90;99.90;;;;;;5048445;28;20531;-69
2021/04/20 04:37:31;;;;;;;7.97;4.73;;;7.90;99.90;;;;;;5049460;28;20957;-70
2021/04/20 04:39:57;;;;;;;5.17;3.93;;;7.90;99.90;;;;;;5034731;28;20848;-69
2021/04/20 04:42:23;;;;;;;6.73;4.90;;;7.90;99.90;;;;;;5031544;28;20458;-69
2021/04/20 04:44:50;;;;;;;5.63;4.10;;;7.80;99.90;;;;;;5032088;28;20977;-69
2021/04/20 04:47:16;;;;;;;6.20;5.23;;;7.80;99.90;;;;;;5041769;28;20458;-68
2021/04/20 04:49:44;;;;;;;5.80;4.40;;;7.80;99.90;;;;;;5035212;28;20514;-69
2021/04/20 04:52:12;;;;;;;9.20;4.80;;;7.80;99.90;;;;;;5018282;28;20834;-69
2021/04/20 04:54:38;;;;;;;9.17;5.83;;;7.80;99.90;;;;;;5019064;28;20516;-68
2021/04/20 04:57:05;;;;;;;5.43;4.57;;;7.80;99.90;;;;;;5029620;28;20450;-70
2021/04/20 04:59:33;;;;;;;7.80;5.10;;;7.80;99.90;;;;;;5042678;28;20216;-69
2021/04/20 05:01:59;;;;;;;11.47;6.47;;;7.80;99.90;;;;;;5000401;28;20471;-69
2021/04/20 05:04:25;;;;;;;7.87;5.70;;;7.70;99.90;;;;;;5032772;28;20550;-70
2021/04/20 05:06:52;;;;;;;16.23;7.00;;;7.80;99.90;;;;;;5015365;28;20642;-70
2021/04/20 05:09:22;;;;;;;9.27;5.13;;;7.70;99.90;;;;;;5047777;28;20228;-69
2021/04/20 05:11:49;;;;;;;8.83;5.03;;;7.70;99.90;;;;;;5051826;28;20533;-69
2021/04/20 05:14:17;;;;;;;8.87;6.50;;;7.70;99.90;;;;;;5050471;28;20450;-71
2021/04/20 05:16:51;;;;;;;8.33;5.83;;;7.70;99.90;;;;;;5017386;28;20446;-69
2021/04/20 05:19:31;;;;;;;11.27;6.27;;;7.70;99.90;;;;;;5050711;28;20458;-69
2021/04/20 05:21:58;;;;;;;6.83;6.17;;;7.70;99.90;;;;;;5051439;28;20466;-68
2021/04/20 05:24:24;;;;;;;10.60;7.80;;;7.70;99.90;;;;;;5051121;28;20469;-69
2021/04/20 05:26:50;;;;;;;8.17;6.70;;;7.70;99.90;;;;;;5034470;28;20473;-69
2021/04/20 05:29:16;;;;;;;8.77;6.40;;;7.70;99.90;;;;;;5033837;28;20454;-69
2021/04/20 05:31:42;;;;;;;8.93;7.00;;;7.70;99.90;;;;;;5051295;28;20212;-69
2021/04/20 05:34:07;;;;;;;8.97;6.50;;;7.70;99.90;;;;;;5017490;28;20450;-69
2021/04/20 05:36:35;;;;;;;10.50;6.50;;;7.70;99.90;;;;;;5031837;28;20309;-69
2021/04/20 05:39:05;;;;;;;9.70;6.00;;;7.70;99.90;;;;;;5067580;28;20231;-69
2021/04/20 05:41:33;;;;;;;8.33;6.00;;;7.70;99.90;;;;;;5050659;28;20439;-70
2021/04/20 05:44:00;;;;;;;8.30;6.10;;;7.70;99.90;;;;;;5046688;28;20472;-70
2021/04/20 05:46:27;;;;;;;8.47;6.20;;;7.70;99.90;;;;;;5034126;28;21104;-71
2021/04/20 05:48:55;;;;;;;11.13;7.47;;;7.80;99.90;;;;;;5033599;28;20454;-69
2021/04/20 05:51:22;;;;;;;13.87;8.73;;;7.80;99.90;;;;;;5025422;28;20470;-69
2021/04/20 05:53:50;;;;;;;20.80;12.00;;;7.80;99.90;;;;;;5050980;28;20476;-69
2021/04/20 05:56:17;;;;;;;17.00;10.57;;;7.80;99.90;;;;;;5026856;28;20475;-69
2021/04/20 05:58:50;;;;;;;16.00;9.50;;;7.80;99.90;;;;;;5016907;28;20453;-69
2021/04/20 06:01:16;;;;;;;12.23;8.63;;;7.80;99.90;;;;;;5050644;28;20454;-69
2021/04/20 06:03:43;;;;;;;16.40;7.97;;;7.80;99.90;;;;;;5052111;28;20458;-68
2021/04/20 06:06:12;;;;;;;11.53;7.83;;;7.80;99.90;;;;;;5013092;28;20858;-69
2021/04/20 06:08:39;;;;;;;8.83;6.80;;;7.90;99.90;;;;;;5033317;28;20476;-70
2021/04/20 06:11:07;;;;;;;9.70;6.90;;;7.90;99.90;;;;;;5034069;28;20458;-69
2021/04/20 06:13:33;;;;;;;10.63;7.00;;;7.90;99.90;;;;;;5033199;28;20439;-69
2021/04/20 06:16:00;;;;;;;8.67;6.50;;;7.90;99.90;;;;;;5040812;28;20504;-68
2021/04/20 06:18:26;;;;;;;11.57;7.47;;;7.90;99.90;;;;;;5064636;28;20460;-69
2021/04/20 06:20:54;;;;;;;15.27;7.97;;;8.00;99.90;;;;;;5023170;28;20447;-69
2021/04/20 06:23:21;;;;;;;9.97;6.57;;;8.00;99.90;;;;;;5033364;28;20482;-69
2021/04/20 06:25:47;;;;;;;9.83;7.20;;;8.00;99.90;;;;;;5033702;28;20461;-69
2021/04/20 06:28:15;;;;;;;9.33;6.50;;;8.10;99.90;;;;;;5049615;28;20450;-70
2021/04/20 06:30:42;;;;;;;10.83;6.60;;;8.10;99.90;;;;;;5016897;28;20442;-69
2021/04/20 06:33:09;;;;;;;9.87;6.80;;;8.10;99.90;;;;;;5051421;28;20469;-70
2021/04/20 06:35:36;;;;;;;8.83;6.37;;;8.20;99.90;;;;;;5017136;28;20463;-69
2021/04/20 06:38:02;;;;;;;13.10;7.90;;;8.20;99.90;;;;;;5032834;28;20542;-69
2021/04/20 06:40:40;;;;;;;12.83;7.30;;;8.30;99.90;;;;;;5032769;28;20482;-69
2021/04/20 06:43:09;;;;;;;10.67;6.73;;;8.40;99.90;;;;;;5049436;28;20882;-70
2021/04/20 06:46:13;;;;;;;9.07;6.27;;;8.40;99.90;;;;;;5013770;28;20466;-69
2021/04/20 06:48:46;;;;;;;9.57;6.40;;;8.50;99.90;;;;;;5031585;28;20500;-69
2021/04/20 06:51:20;;;;;;;12.83;7.30;;;8.50;99.90;;;;;;5043964;28;20450;-70
2021/04/20 06:53:49;;;;;;;8.00;5.27;;;8.60;99.90;;;;;;5016488;28;20446;-69
2021/04/20 06:56:36;;;;;;;7.63;5.90;;;8.60;99.90;;;;;;5048308;28;20445;-72
2021/04/20 06:59:32;;;;;;;8.20;6.17;;;8.70;99.90;;;;;;5044858;28;20461;-71
2021/04/20 07:02:27;;;;;;;11.30;6.43;;;8.70;99.90;;;;;;5058245;28;20443;-70
2021/04/20 07:04:57;;;;;;;7.20;5.10;;;8.70;99.90;;;;;;5032363;28;20470;-69
2021/04/20 07:07:32;;;;;;;10.87;6.53;;;8.80;99.90;;;;;;5052757;28;20474;-70
2021/04/20 07:10:23;;;;;;;7.50;5.27;;;8.80;99.90;;;;;;5024634;28;20462;-69
2021/04/20 07:12:52;;;;;;;10.80;7.43;;;8.90;99.90;;;;;;5049009;28;20525;-69
2021/04/20 07:15:20;;;;;;;11.63;6.83;;;9.00;99.90;;;;;;5053033;28;20495;-69
2021/04/20 07:18:05;;;;;;;11.97;7.03;;;9.00;99.90;;;;;;5029059;28;20974;-69
2021/04/20 07:21:06;;;;;;;12.17;7.47;;;9.10;99.90;;;;;;5028772;28;20438;-70
2021/04/20 07:23:59;;;;;;;14.77;8.20;;;9.20;99.90;;;;;;4987079;28;20456;-69
2021/04/20 07:26:54;;;;;;;12.27;8.10;;;9.30;99.90;;;;;;5056710;28;20496;-70
2021/04/20 07:29:50;;;;;;;13.93;7.80;;;9.40;99.90;;;;;;5043940;28;20467;-70
2021/04/20 07:32:51;;;;;;;10.63;6.83;;;9.60;99.90;;;;;;5027980;28;20502;-69
2021/04/20 07:35:20;;;;;;;13.57;8.37;;;9.70;99.90;;;;;;5041859;28;20465;-69
2021/04/20 07:37:55;;;;;;;15.80;9.30;;;9.70;99.90;;;;;;5047960;28;20529;-69
2021/04/20 07:40:50;;;;;;;17.30;9.00;;;9.80;99.90;;;;;;5031401;28;20472;-69
2021/04/20 07:43:53;;;;;;;15.67;8.43;;;9.90;99.90;;;;;;5012443;28;20493;-69
2021/04/20 07:46:23;;;;;;;14.87;8.60;;;10.00;99.90;;;;;;5031792;28;21049;-71
2021/04/20 07:48:49;;;;;;;15.60;8.97;;;10.10;99.90;;;;;;5050531;28;20517;-73
2021/04/20 07:51:35;;;;;;;18.50;10.60;;;10.10;99.90;;;;;;5028343;28;20538;-68
2021/04/20 07:54:20;;;;;;;19.50;10.40;;;10.20;99.90;;;;;;5012590;28;20316;-69
2021/04/20 07:57:06;;;;;;;18.80;9.70;;;10.30;99.90;;;;;;5045239;28;20973;-69
2021/04/20 07:59:41;;;;;;;13.53;8.37;;;10.40;99.90;;;;;;5028017;28;20439;-69
2021/04/20 08:02:21;;;;;;;17.40;10.53;;;10.50;99.90;;;;;;5026832;28;20977;-69
2021/04/20 08:04:56;;;;;;;16.53;8.90;;;10.60;99.90;;;;;;5046802;28;20462;-69
2021/04/20 08:07:43;;;;;;;16.53;10.37;;;10.60;99.90;;;;;;5046619;28;20503;-70
2021/04/20 08:10:11;;;;;;;15.23;8.27;;;10.70;99.90;;;;;;5029597;28;20519;-70
2021/04/20 08:12:57;;;;;;;15.80;8.93;;;10.70;99.90;;;;;;5029732;28;20481;-70
2021/04/20 08:15:34;;;;;;;17.93;10.80;;;10.90;99.90;;;;;;5047476;28;20469;-72
2021/04/20 08:18:10;;;;;;;18.77;10.13;;;11.00;99.90;;;;;;5038897;28;20529;-69
2021/04/20 08:20:37;;;;;;;17.37;10.10;;;11.10;99.90;;;;;;5015922;28;20446;-70
2021/04/20 08:23:05;;;;;;;15.97;9.63;;;11.20;99.90;;;;;;5051358;28;20552;-71
2021/04/20 08:25:39;;;;;;;16.80;9.83;;;11.30;99.90;;;;;;5049455;28;20446;-70
2021/04/20 08:28:38;;;;;;;15.53;9.87;;;11.30;99.90;;;;;;5050658;28;20970;-70
2021/04/20 08:31:13;;;;;;;13.10;8.40;;;11.50;99.90;;;;;;5051307;28;20464;-69
2021/04/20 08:33:42;;;;;;;16.40;8.70;;;11.70;99.90;;;;;;5051327;28;20472;-69
2021/04/20 08:36:34;;;;;;;15.30;9.37;;;11.80;99.90;;;;;;5001771;28;21155;-70
2021/04/20 08:39:20;;;;;;;14.30;8.70;;;11.90;99.90;;;;;;5049357;28;20478;-69
2021/04/20 08:41:57;;;;;;;13.97;9.70;;;11.90;99.90;;;;;;5027844;28;20478;-70
2021/04/20 08:44:36;;;;;;;15.27;8.90;;;12.00;99.90;;;;;;5025214;28;20612;-68
2021/04/20 08:47:12;;;;;;;15.07;9.37;;;12.10;99.90;;;;;;5051433;28;20541;-68
2021/04/20 08:49:45;;;;;;;16.37;9.47;;;12.10;99.90;;;;;;5042696;28;20450;-69
2021/04/20 08:52:29;;;;;;;17.47;9.37;;;12.20;99.90;;;;;;5018454;28;20906;-67
2021/04/20 08:55:30;;;;;;;14.80;9.70;;;12.30;99.90;;;;;;5048842;28;20469;-68
2021/04/20 08:58:23;;;;;;;13.93;8.87;;;12.40;99.90;;;;;;5050164;28;20446;-69
2021/04/20 09:01:07;;;;;;;15.23;10.10;;;12.50;99.90;;;;;;5059819;28;20442;-69
2021/04/20 09:03:56;;;;;;;16.67;9.10;;;12.70;99.90;;;;;;5034425;28;20473;-68
2021/04/20 09:06:37;;;;;;;10.93;7.97;;;12.80;99.90;;;;;;5048449;28;20606;-68
2021/04/20 09:09:08;;;;;;;16.07;8.60;;;13.00;99.90;;;;;;5033841;28;20888;-71
2021/04/20 09:11:37;;;;;;;15.40;8.63;;;13.10;99.90;;;;;;5025912;28;20453;-68
2021/04/20 09:14:15;;;;;;;13.77;9.33;;;13.20;99.90;;;;;;5050555;28;20469;-69
2021/04/20 09:16:47;;;;;;;20.63;9.90;;;13.30;99.90;;;;;;5049619;28;20458;-68
2021/04/20 09:19:29;;;;;;;13.03;8.50;;;13.40;99.90;;;;;;5047811;28;20474;-68
2021/04/20 09:22:26;;;;;;;14.40;9.60;;;13.50;99.90;;;;;;5057593;28;20483;-69
2021/04/20 09:25:15;;;;;;;12.37;8.67;;;13.60;99.90;;;;;;5042356;28;20549;-68
2021/04/20 09:27:40;;;;;;;11.40;7.10;;;13.70;99.90;;;;;;5047877;28;20473;-68
2021/04/20 09:30:13;;;;;;;14.23;9.43;;;13.90;99.90;;;;;;5049824;28;20450;-68
2021/04/20 09:32:49;;;;;;;12.03;9.23;;;14.10;99.90;;;;;;5017598;28;20227;-67
2021/04/20 09:35:15;;;;;;;13.67;8.07;;;14.20;99.90;;;;;;5048625;28;20465;-68
2021/04/20 09:37:43;;;;;;;13.00;8.60;;;14.30;99.90;;;;;;5030429;28;20485;-68
2021/04/20 09:40:14;;;;;;;9.90;7.33;;;14.40;99.90;;;;;;5051532;28;20454;-69
2021/04/20 09:42:42;;;;;;;14.13;9.03;;;14.40;99.90;;;;;;5033649;28;20465;-69
2021/04/20 09:45:34;;;;;;;13.33;8.67;;;14.50;99.90;;;;;;5050566;28;20462;-68
2021/04/20 09:48:31;;;;;;;14.03;9.27;;;14.50;99.90;;;;;;5049936;28;20454;-71
2021/04/20 09:50:57;;;;;;;12.27;7.80;;;14.60;99.90;;;;;;5007519;28;20458;-69
2021/04/20 09:53:42;;;;;;;12.07;7.40;;;14.70;99.90;;;;;;5049287;28;20443;-69
2021/04/20 09:56:22;;;;;;;12.63;7.50;;;14.80;99.90;;;;;;5024561;28;20450;-69
2021/04/20 09:58:48;;;;;;;12.97;8.10;;;15.00;99.90;;;;;;5048874;28;20965;-68
2021/04/20 10:01:58;;;;;;;15.27;9.30;;;15.00;99.90;;;;;;5047700;28;20446;-68
2021/04/20 10:04:42;;;;;;;10.90;7.60;;;15.00;99.90;;;;;;4989274;28;20472;-69
2021/04/20 10:07:29;;;;;;;14.13;8.83;;;15.10;99.90;;;;;;4991347;28;20449;-69
2021/04/20 10:10:02;;;;;;;10.93;7.13;;;15.30;99.90;;;;;;5034203;28;20520;-69
2021/04/20 10:13:05;;;;;;;11.73;7.40;;;15.50;99.90;;;;;;5049145;28;20461;-69
2021/04/20 10:15:56;;;;;;;9.27;6.30;;;15.80;99.90;;;;;;5026141;28;20460;-68
2021/04/20 10:18:41;;;;;;;8.07;6.13;;;15.90;99.90;;;;;;5043068;28;20770;-70
2021/04/20 10:21:27;;;;;;;8.07;6.27;;;16.10;99.90;;;;;;5043560;28;20474;-69
2021/04/20 10:24:19;;;;;;;5.03;3.93;;;16.30;99.90;;;;;;5048239;28;20478;-69
2021/04/20 10:26:54;;;;;;;5.10;3.90;;;16.40;99.90;;;;;;5048502;28;20458;-69
2021/04/20 10:29:46;;;;;;;5.30;4.33;;;16.40;99.90;;;;;;5020636;28;20454;-69
2021/04/20 10:32:25;;;;;;;9.00;6.57;;;16.50;99.90;;;;;;4998169;28;20537;-69
2021/04/20 10:34:54;;;;;;;13.23;9.20;;;16.50;99.90;;;;;;5044007;28;20521;-69
2021/04/20 10:37:28;;;;;;;9.70;7.17;;;16.40;99.90;;;;;;5014582;28;21036;-69
2021/04/20 10:39:55;;;;;;;9.33;7.67;;;16.40;99.90;;;;;;5025803;28;20541;-71
2021/04/20 10:42:31;;;;;;;9.67;7.00;;;16.40;99.90;;;;;;5031620;28;20479;-69
2021/04/20 10:44:58;;;;;;;10.30;7.40;;;16.70;99.90;;;;;;5030010;28;20981;-68
2021/04/20 10:47:25;;;;;;;11.70;7.33;;;16.80;99.90;;;;;;5048095;28;20478;-69
2021/04/20 10:49:54;;;;;;;8.90;6.00;;;17.00;99.90;;;;;;5049382;28;20524;-70
2021/04/20 10:52:23;;;;;;;8.87;5.50;;;17.10;99.90;;;;;;5012333;28;20452;-69
2021/04/20 10:54:49;;;;;;;13.80;7.63;;;17.10;99.90;;;;;;5012614;28;20466;-69
2021/04/20 10:57:16;;;;;;;12.03;7.97;;;17.20;99.90;;;;;;5028712;28;21097;-70
2021/04/20 10:59:50;;;;;;;11.87;7.20;;;17.30;99.90;;;;;;5030805;28;20462;-69
2021/04/20 11:02:22;;;;;;;8.47;5.97;;;17.40;99.90;;;;;;5046662;28;20519;-69
2021/04/20 11:04:51;;;;;;;7.37;5.63;;;17.60;99.90;;;;;;5030383;28;20544;-69
2021/04/20 11:07:31;;;;;;;8.00;5.90;;;17.60;99.90;;;;;;5009767;28;20507;-68
2021/04/20 11:09:59;;;;;;;10.20;6.27;;;17.60;99.90;;;;;;5025303;28;20454;-69
2021/04/20 11:12:27;;;;;;;8.53;6.63;;;17.70;99.90;;;;;;5030150;28;20451;-70
2021/04/20 11:14:54;;;;;;;7.07;5.70;;;17.90;99.90;;;;;;5049906;28;20454;-70
2021/04/20 11:17:43;;;;;;;8.43;6.30;;;17.90;99.90;;;;;;5037971;28;20459;-72
2021/04/20 11:20:35;;;;;;;10.40;8.27;;;18.00;99.90;;;;;;5028955;28;20459;-69
2021/04/20 11:23:07;;;;;;;10.83;7.20;;;18.20;99.90;;;;;;5045712;28;20490;-69
2021/04/20 11:25:38;;;;;;;7.80;6.33;;;18.40;99.90;;;;;;5046206;28;20454;-70
2021/04/20 11:28:14;;;;;;;7.87;5.87;;;18.40;99.90;;;;;;5031667;28;20458;-71
2021/04/20 11:30:50;;;;;;;10.33;6.43;;;18.30;99.90;;;;;;5026814;28;20450;-69
2021/04/20 11:33:22;;;;;;;7.97;6.27;;;18.20;99.90;;;;;;5044960;28;20462;-71
2021/04/20 11:35:51;;;;;;;8.10;6.90;;;18.40;99.90;;;;;;5044309;28;20984;-71
2021/04/20 11:38:18;;;;;;;6.77;5.90;;;18.60;99.80;;;;;;5010810;28;20977;-69
2021/04/20 11:40:54;;;;;;;8.93;7.10;;;18.60;99.80;;;;;;5010882;28;21019;-70
2021/04/20 11:43:23;;;;;;;6.63;5.63;;;18.70;99.90;;;;;;5046252;28;20475;-70
2021/04/20 11:45:49;;;;;;;8.13;7.30;;;18.70;99.90;;;;;;5023793;28;20472;-70
2021/04/20 11:48:25;;;;;;;9.03;6.80;;;18.80;99.90;;;;;;5030750;28;20447;-71
2021/04/20 11:50:54;;;;;;;7.47;5.80;;;19.00;99.90;;;;;;5038863;28;20445;-69
2021/04/20 11:53:21;;;;;;;8.40;5.23;;;19.20;99.10;;;;;;5011257;28;20868;-69
2021/04/20 11:55:49;;;;;;;7.37;6.67;;;19.20;99.70;;;;;;5027693;28;20455;-69
2021/04/20 11:58:42;;;;;;;5.27;4.60;;;19.30;99.90;;;;;;5044392;28;20469;-70
2021/04/20 12:01:15;;;;;;;5.53;4.77;;;19.50;99.10;;;;;;5038362;28;20515;-69
2021/04/20 12:03:56;;;;;;;7.00;5.83;;;19.60;98.50;;;;;;5048606;28;20462;-71
2021/04/20 12:06:23;;;;;;;7.57;5.47;;;19.80;96.60;;;;;;5045671;28;20455;-69
2021/04/20 12:08:57;;;;;;;7.00;5.00;;;19.80;96.70;;;;;;5023630;28;20439;-72
2021/04/20 12:11:28;;;;;;;5.70;4.17;;;19.80;98.40;;;;;;5018333;28;20538;-69
2021/04/20 12:13:55;;;;;;;5.97;4.70;;;19.70;97.30;;;;;;5031257;28;20457;-70
2021/04/20 12:16:45;;;;;;;5.40;4.60;;;19.70;97.20;;;;;;5045900;28;20454;-69
2021/04/20 12:19:14;;;;;;;6.80;5.50;;;19.70;97.20;;;;;;5049765;28;20467;-69
2021/04/20 12:21:45;;;;;;;5.43;4.90;;;19.80;95.90;;;;;;5046313;28;20446;-69
2021/04/20 12:24:16;;;;;;;6.30;4.83;;;19.80;96.10;;;;;;5047711;28;20849;-69
2021/04/20 12:26:44;;;;;;;5.10;4.17;;;20.00;96.10;;;;;;5028732;28;20470;-70
2021/04/20 12:29:12;;;;;;;7.83;5.20;;;20.10;96.70;;;;;;5048988;28;20520;-69
2021/04/20 12:31:38;;;;;;;5.37;4.60;;;20.10;96.00;;;;;;5048064;28;20522;-69
2021/04/20 12:34:05;;;;;;;7.00;5.53;;;20.20;96.40;;;;;;5048245;28;21005;-71
2021/04/20 12:36:51;;;;;;;8.27;6.10;;;20.30;95.60;;;;;;5018456;28;20458;-71
2021/04/20 12:39:32;;;;;;;11.97;7.67;;;20.10;94.60;;;;;;5014825;28;20454;-70
2021/04/20 12:42:01;;;;;;;6.37;4.03;;;19.80;94.10;;;;;;5031580;28;20458;-70
2021/04/20 12:44:35;;;;;;;7.43;5.20;;;19.80;95.30;;;;;;5043287;28;20827;-70
2021/04/20 12:47:02;;;;;;;8.03;5.97;;;19.90;95.10;;;;;;5015745;28;20539;-70
2021/04/20 12:49:30;;;;;;;5.87;4.90;;;19.80;95.60;;;;;;5033507;28;20863;-70
2021/04/20 12:51:58;;;;;;;6.33;5.57;;;19.80;95.60;;;;;;5026150;28;20463;-69
2021/04/20 12:54:28;;;;;;;7.67;6.33;;;19.90;95.60;;;;;;5003834;28;20450;-71
2021/04/20 12:56:59;;;;;;;6.43;4.83;;;20.10;95.20;;;;;;5053123;28;20882;-70
2021/04/20 12:59:27;;;;;;;5.40;4.87;;;20.10;95.60;;;;;;5037092;28;20455;-72
2021/04/20 13:01:57;;;;;;;5.00;4.27;;;20.20;96.00;;;;;;5031162;28;20461;-71
2021/04/20 13:04:30;;;;;;;4.43;3.90;;;20.30;96.00;;;;;;5021671;28;20553;-70
2021/04/20 13:06:57;;;;;;;6.33;5.33;;;20.30;95.10;;;;;;5028261;28;20483;-70
2021/04/20 13:09:24;;;;;;;7.80;6.57;;;20.30;95.10;;;;;;5014118;28;20465;-70
2021/04/20 13:11:53;;;;;;;7.40;6.57;;;20.30;94.70;;;;;;5047368;28;20450;-70
2021/04/20 13:14:21;;;;;;;7.90;5.90;;;20.20;94.70;;;;;;5046551;28;20542;-70
2021/04/20 13:16:51;;;;;;;5.90;5.20;;;20.10;94.00;;;;;;5035047;28;20442;-70